Time;durP1;ratioP1;P1;durP2;ratioP2;P2;SDS_P1;SDS_P2;PMS_P1;PMS_P2;Temp;Humidity;BMP_temperature;BMP_pressure;BME280_temperature;BME280_humidity;BME280_pressure;Samples;Min_cycle;Max_cycle;Signal;HPM_P1;HPM_P2
2022/09/12 00:02:04;;;;;;;0.38;0.10;;;22.70;73.00;;;;;;5071243;28;20032;-76
2022/09/12 00:04:31;;;;;;;1.58;0.20;;;22.90;73.60;;;;;;5063547;28;20043;-73
2022/09/12 00:06:59;;;;;;;1.45;0.20;;;23.40;73.10;;;;;;5067991;28;20032;-74
2022/09/12 00:09:26;;;;;;;1.85;0.38;;;23.80;71.10;;;;;;5068010;28;20066;-75
2022/09/12 00:11:53;;;;;;;0.30;0.10;;;24.20;69.50;;;;;;5068923;28;20040;-75
2022/09/12 00:14:21;;;;;;;1.77;0.15;;;23.90;69.90;;;;;;5061268;28;20041;-74
2022/09/12 00:16:48;;;;;;;0.55;0.13;;;24.20;68.70;;;;;;5074853;28;20042;-75
2022/09/12 00:19:15;;;;;;;0.20;0.10;;;24.30;70.50;;;;;;5063745;28;20029;-75
2022/09/12 00:21:43;;;;;;;1.92;0.10;;;24.40;69.30;;;;;;5063604;28;20033;-75
2022/09/12 00:24:11;;;;;;;0.10;0.10;;;24.50;71.10;;;;;;5066978;28;20028;-77
2022/09/12 00:26:39;;;;;;;0.38;0.30;;;24.80;69.60;;;;;;5038318;28;20597;-75
2022/09/12 00:29:06;;;;;;;0.63;0.32;;;24.90;70.10;;;;;;5066334;28;20025;-74
2022/09/12 00:31:34;;;;;;;0.25;0.10;;;24.80;68.50;;;;;;5064418;28;20041;-74
2022/09/12 00:34:02;;;;;;;1.08;0.10;;;24.70;69.00;;;;;;5056423;28;20364;-73
2022/09/12 00:36:30;;;;;;;1.48;0.10;;;24.90;67.60;;;;;;5079127;28;20038;-75
2022/09/12 00:38:57;;;;;;;0.73;0.17;;;24.30;66.60;;;;;;5077689;28;20055;-74
2022/09/12 00:41:37;;;;;;;0.30;0.25;;;24.20;70.00;;;;;;5064269;28;20076;-74
2022/09/12 00:44:23;;;;;;;2.55;0.35;;;24.20;68.50;;;;;;5053036;28;20061;-74
2022/09/12 00:47:27;;;;;;;1.77;0.43;;;24.70;69.50;;;;;;5060946;28;20118;-73
2022/09/12 00:50:06;;;;;;;1.60;0.28;;;24.20;66.50;;;;;;5053002;28;20040;-73
2022/09/12 00:52:45;;;;;;;1.30;0.55;;;23.80;69.10;;;;;;5059219;28;20100;-74
2022/09/12 00:55:20;;;;;;;1.65;0.20;;;24.10;69.10;;;;;;5058443;28;20089;-74
2022/09/12 00:57:55;;;;;;;0.63;0.35;;;24.80;69.60;;;;;;5061048;28;20025;-74
2022/09/12 01:00:24;;;;;;;2.47;0.20;;;24.90;68.40;;;;;;5061786;28;20021;-74
2022/09/12 01:03:01;;;;;;;1.02;0.10;;;24.80;67.10;;;;;;5060849;28;20311;-75
2022/09/12 01:05:30;;;;;;;0.43;0.30;;;25.00;65.70;;;;;;5069334;28;20017;-74
2022/09/12 01:08:00;;;;;;;1.42;0.10;;;25.10;68.40;;;;;;5064573;28;20106;-74
2022/09/12 01:10:27;;;;;;;1.00;0.13;;;25.20;66.90;;;;;;5053223;28;20024;-75
2022/09/12 01:12:55;;;;;;;0.63;0.20;;;25.30;65.10;;;;;;5075551;28;20086;-75
2022/09/12 01:15:23;;;;;;;0.65;0.10;;;25.20;66.80;;;;;;5064374;28;20036;-75
2022/09/12 01:18:08;;;;;;;0.63;0.20;;;25.50;68.30;;;;;;5060524;28;20024;-75
2022/09/12 01:20:48;;;;;;;1.70;0.10;;;25.90;68.30;;;;;;5067477;28;20021;-75
2022/09/12 01:23:35;;;;;;;0.13;0.10;;;25.80;65.10;;;;;;5055170;28;20039;-73
2022/09/12 01:26:26;;;;;;;1.05;0.10;;;25.70;65.90;;;;;;5068157;28;20021;-73
2022/09/12 01:29:18;;;;;;;0.10;0.10;;;25.90;67.40;;;;;;5062376;28;20036;-73
2022/09/12 01:31:57;;;;;;;0.10;0.10;;;26.10;65.40;;;;;;5056081;28;20041;-74
2022/09/12 01:34:46;;;;;;;1.42;0.17;;;26.00;67.00;;;;;;5060015;28;20437;-75
2022/09/12 01:37:23;;;;;;;0.47;0.20;;;26.10;68.00;;;;;;5078951;28;20024;-74
2022/09/12 01:40:27;;;;;;;0.80;0.13;;;26.30;66.40;;;;;;5084187;28;20028;-74
2022/09/12 01:43:04;;;;;;;1.38;0.20;;;26.10;65.20;;;;;;5030993;28;20041;-73
2022/09/12 01:45:43;;;;;;;0.32;0.08;;;25.80;66.70;;;;;;5061747;28;20028;-73
2022/09/12 01:48:25;;;;;;;0.20;0.20;;;25.50;66.30;;;;;;5062405;28;20427;-73
2022/09/12 01:51:01;;;;;;;0.47;0.10;;;25.60;68.70;;;;;;5058227;28;20032;-74
2022/09/12 01:53:48;;;;;;;0.10;0.10;;;25.80;68.20;;;;;;5061360;28;20118;-73
2022/09/12 01:56:24;;;;;;;0.57;0.10;;;26.00;67.80;;;;;;5073350;28;20198;-73
2022/09/12 01:59:18;;;;;;;0.10;0.03;;;26.10;66.30;;;;;;5062209;28;20048;-74
2022/09/12 02:02:08;;;;;;;0.10;0.05;;;25.90;65.50;;;;;;5040570;28;20131;-73
2022/09/12 02:05:19;;;;;;;0.63;0.20;;;25.90;67.70;;;;;;5069582;28;20033;-74
2022/09/12 02:08:09;;;;;;;0.95;0.20;;;26.10;67.40;;;;;;4997133;28;20406;-73
2022/09/12 02:10:48;;;;;;;0.30;0.10;;;26.20;67.60;;;;;;4985395;28;20115;-72
2022/09/12 02:13:25;;;;;;;0.10;0.10;;;26.10;66.70;;;;;;5043086;28;20032;-73
2022/09/12 02:16:10;;;;;;;0.30;0.30;;;26.30;67.80;;;;;;5067681;28;20046;-74
2022/09/12 02:18:46;;;;;;;1.08;0.10;;;26.00;67.50;;;;;;5063777;28;20028;-74
2022/09/12 02:21:14;;;;;;;1.20;0.10;;;26.10;69.00;;;;;;5057182;28;20028;-73
2022/09/12 02:23:47;;;;;;;0.40;0.10;;;26.30;65.40;;;;;;5052134;28;20025;-74
2022/09/12 02:26:34;;;;;;;1.23;0.10;;;26.30;68.00;;;;;;5060881;28;20029;-72
2022/09/12 02:29:03;;;;;;;0.90;0.10;;;26.60;67.60;;;;;;5063207;28;20057;-73
2022/09/12 02:32:12;;;;;;;1.17;0.10;;;26.70;66.90;;;;;;5049682;28;20045;-73
2022/09/12 02:34:54;;;;;;;0.55;0.10;;;26.70;68.40;;;;;;5054738;28;20090;-74
2022/09/12 02:37:47;;;;;;;0.73;0.10;;;26.80;67.80;;;;;;5058815;28;20486;-74
2022/09/12 02:40:15;;;;;;;0.80;0.10;;;26.80;66.00;;;;;;5049028;28;20398;-72
2022/09/12 02:42:42;;;;;;;0.90;0.10;;;26.60;67.60;;;;;;5064553;28;20483;-73
2022/09/12 02:45:11;;;;;;;0.20;0.10;;;26.40;65.30;;;;;;5067695;28;20052;-73
2022/09/12 02:47:42;;;;;;;1.02;0.30;;;26.50;66.80;;;;;;5070725;28;20052;-71
2022/09/12 02:50:09;;;;;;;1.13;0.20;;;26.70;68.50;;;;;;5058996;28;20395;-73
2022/09/12 02:52:38;;;;;;;0.77;0.20;;;26.00;63.30;;;;;;5051563;28;20036;-75
2022/09/12 02:55:06;;;;;;;0.10;0.10;;;25.50;65.90;;;;;;5053092;28;20471;-73
2022/09/12 02:57:33;;;;;;;0.13;0.10;;;25.70;67.50;;;;;;5065029;28;20040;-74
2022/09/12 03:00:02;;;;;;;1.17;0.55;;;25.80;66.30;;;;;;5067956;28;20028;-72
2022/09/12 03:02:43;;;;;;;0.30;0.20;;;26.10;67.50;;;;;;5059027;28;20041;-74
2022/09/12 03:05:43;;;;;;;0.30;0.05;;;26.50;67.80;;;;;;5069090;28;20411;-73
2022/09/12 03:08:39;;;;;;;0.75;0.10;;;26.70;67.60;;;;;;5075491;28;20148;-72
2022/09/12 03:11:24;;;;;;;;;;;26.70;65.90;;;;;;5062067;28;20459;-73
2022/09/12 03:14:21;;;;;;;0.20;0.10;;;26.60;68.30;;;;;;5064650;28;19995;-73
2022/09/12 03:16:51;;;;;;;0.63;0.10;;;27.00;67.60;;;;;;5063224;28;20410;-73
2022/09/12 03:19:56;;;;;;;0.10;0.10;;;27.10;68.90;;;;;;5057438;28;20017;-75
2022/09/12 03:22:49;;;;;;;1.40;0.00;;;27.30;68.00;;;;;;5074268;28;20048;-72
2022/09/12 03:25:27;;;;;;;0.20;0.10;;;27.10;64.70;;;;;;5053087;28;20029;-72
2022/09/12 03:27:58;;;;;;;0.63;0.15;;;26.80;66.50;;;;;;5060692;28;20052;-76
2022/09/12 03:30:26;;;;;;;1.35;0.17;;;25.90;67.90;;;;;;5071405;28;20040;-78
2022/09/12 03:32:54;;;;;;;2.13;0.20;;;26.10;68.10;;;;;;5075823;28;20052;-77
2022/09/12 03:35:24;;;;;;;0.15;0.03;;;26.20;67.00;;;;;;5067884;28;20487;-74
2022/09/12 03:37:52;;;;;;;1.83;0.20;;;26.40;66.90;;;;;;5072395;28;20032;-76
2022/09/12 03:40:20;;;;;;;0.20;0.20;;;26.40;68.90;;;;;;5082916;28;20047;-75
2022/09/12 03:42:47;;;;;;;1.48;0.20;;;26.40;68.60;;;;;;5082041;28;20625;-75
2022/09/12 03:45:15;;;;;;;0.50;0.20;;;26.40;66.60;;;;;;5072629;28;20025;-73
2022/09/12 03:47:42;;;;;;;2.42;0.20;;;26.30;66.10;;;;;;5059558;28;20383;-76
2022/09/12 03:50:10;;;;;;;0.50;0.17;;;26.40;68.50;;;;;;5062324;28;20040;-74
2022/09/12 03:52:37;;;;;;;0.70;0.40;;;26.50;68.00;;;;;;5070184;28;20021;-75
2022/09/12 03:55:05;;;;;;;0.68;0.10;;;26.50;67.10;;;;;;5071196;28;20391;-75
2022/09/12 03:57:33;;;;;;;0.30;0.13;;;26.30;65.80;;;;;;5055456;28;20482;-74
2022/09/12 04:00:00;;;;;;;2.45;0.20;;;26.50;66.50;;;;;;5058469;28;20048;-76
2022/09/12 04:02:29;;;;;;;0.75;0.10;;;26.50;66.00;;;;;;5063691;28;20044;-76
2022/09/12 04:04:56;;;;;;;0.73;0.10;;;26.70;67.70;;;;;;5056331;28;20436;-75
2022/09/12 04:07:23;;;;;;;1.45;0.25;;;26.70;66.90;;;;;;5064937;28;20032;-75
2022/09/12 04:09:52;;;;;;;1.25;0.20;;;26.60;66.30;;;;;;5066274;28;20498;-77
2022/09/12 04:12:20;;;;;;;0.40;0.10;;;26.70;67.30;;;;;;5071069;28;20029;-75
2022/09/12 04:14:47;;;;;;;0.30;0.30;;;26.60;65.50;;;;;;5064907;28;20074;-77
2022/09/12 04:17:15;;;;;;;2.22;0.20;;;26.10;66.90;;;;;;5068897;28;20028;-75
2022/09/12 04:19:42;;;;;;;0.80;0.40;;;25.80;67.50;;;;;;5059311;28;20027;-76
2022/09/12 04:22:10;;;;;;;2.05;0.25;;;25.50;67.70;;;;;;5068721;28;20139;-76
2022/09/12 04:24:37;;;;;;;0.35;0.10;;;25.50;68.40;;;;;;5055134;28;20032;-76
2022/09/12 04:27:05;;;;;;;0.73;0.10;;;25.40;67.80;;;;;;5059194;28;20025;-75
2022/09/12 04:29:32;;;;;;;0.22;0.10;;;25.60;66.60;;;;;;5066407;28;20029;-75
2022/09/12 04:31:59;;;;;;;0.40;0.10;;;25.60;67.50;;;;;;5058309;28;20569;-77
2022/09/12 04:34:29;;;;;;;1.02;0.17;;;25.50;67.70;;;;;;5082852;28;20363;-78
2022/09/12 04:36:57;;;;;;;0.20;0.10;;;25.40;69.60;;;;;;5060792;28;20032;-77
2022/09/12 04:39:24;;;;;;;0.82;0.20;;;25.30;67.80;;;;;;5052621;28;20504;-76
2022/09/12 04:41:51;;;;;;;0.32;0.10;;;25.40;68.20;;;;;;5067112;28;20040;-76
2022/09/12 04:44:19;;;;;;;0.20;0.20;;;25.30;68.00;;;;;;5064757;28;20029;-76
2022/09/12 04:46:47;;;;;;;1.20;0.10;;;25.40;66.50;;;;;;5057082;28;20394;-75
2022/09/12 04:49:18;;;;;;;0.10;0.10;;;25.40;67.60;;;;;;5064457;28;20031;-76
2022/09/12 04:51:46;;;;;;;1.35;0.10;;;25.20;67.70;;;;;;5065640;28;20529;-76
2022/09/12 04:54:17;;;;;;;4.57;0.32;;;25.20;67.80;;;;;;5055261;28;20086;-75
2022/09/12 04:56:48;;;;;;;0.22;0.10;;;25.00;68.20;;;;;;5055505;28;20021;-77
2022/09/12 04:59:17;;;;;;;0.10;0.10;;;24.90;67.50;;;;;;5053329;28;20529;-76
2022/09/12 05:01:44;;;;;;;0.60;0.20;;;24.80;67.50;;;;;;5059702;28;20116;-76
2022/09/12 05:04:12;;;;;;;0.68;0.50;;;24.70;68.40;;;;;;5054463;28;20075;-75
2022/09/12 05:06:40;;;;;;;0.10;0.10;;;24.60;68.40;;;;;;5064144;28;20033;-75
2022/09/12 05:09:10;;;;;;;0.40;0.10;;;24.50;69.30;;;;;;5059719;28;20037;-75
2022/09/12 05:11:40;;;;;;;0.10;0.10;;;24.60;69.30;;;;;;5051355;28;20094;-78
2022/09/12 05:14:07;;;;;;;0.00;0.00;;;24.50;69.10;;;;;;5058986;28;20032;-78
2022/09/12 05:16:35;;;;;;;0.32;0.10;;;24.50;68.90;;;;;;5062605;28;20099;-81
2022/09/12 05:19:02;;;;;;;0.55;0.10;;;24.40;68.50;;;;;;5067863;28;20039;-77
2022/09/12 05:21:29;;;;;;;0.32;0.15;;;24.20;68.10;;;;;;5068649;28;20032;-81
2022/09/12 05:24:00;;;;;;;0.82;0.10;;;24.20;68.80;;;;;;5065792;28;20549;-81
2022/09/12 05:26:28;;;;;;;0.98;0.10;;;24.20;68.70;;;;;;5059813;28;20516;-79
2022/09/12 05:28:55;;;;;;;0.55;0.20;;;24.20;68.40;;;;;;5068968;28;20131;-78
2022/09/12 05:31:27;;;;;;;0.93;0.10;;;24.10;69.30;;;;;;5064110;28;20494;-79
2022/09/12 05:33:56;;;;;;;1.10;0.10;;;23.70;68.80;;;;;;5060001;28;20060;-77
2022/09/12 05:36:28;;;;;;;0.20;0.20;;;23.30;69.30;;;;;;5054653;28;20033;-78
2022/09/12 05:38:56;;;;;;;0.28;0.20;;;23.10;69.40;;;;;;5056086;28;20403;-79
2022/09/12 05:41:28;;;;;;;0.10;0.10;;;22.90;69.70;;;;;;5051311;28;20037;-80
2022/09/12 05:43:57;;;;;;;0.20;0.20;;;22.80;70.00;;;;;;5065269;28;20094;-81
2022/09/12 05:46:27;;;;;;;0.47;0.20;;;22.60;70.30;;;;;;5052098;28;20036;-78
2022/09/12 05:48:56;;;;;;;0.45;0.15;;;22.50;69.70;;;;;;5073452;28;20577;-81
2022/09/12 05:51:28;;;;;;;0.32;0.10;;;22.30;71.00;;;;;;5058073;28;20364;-84
2022/09/12 05:53:58;;;;;;;5.70;0.70;;;22.20;71.30;;;;;;5052393;28;20032;-81
2022/09/12 05:56:28;;;;;;;0.10;0.10;;;22.00;70.80;;;;;;5061937;28;20510;-79
2022/09/12 05:58:57;;;;;;;0.20;0.10;;;22.00;71.40;;;;;;5066139;28;20043;-81
2022/09/12 06:01:25;;;;;;;0.95;0.30;;;21.90;71.90;;;;;;5058805;28;20537;-79
2022/09/12 06:03:55;;;;;;;1.65;0.28;;;21.90;70.90;;;;;;5070580;28;20428;-80
2022/09/12 06:06:24;;;;;;;0.40;0.30;;;21.70;71.30;;;;;;5053705;28;20036;-80
2022/09/12 06:08:53;;;;;;;1.08;0.20;;;21.50;71.40;;;;;;5070696;28;20755;-79
2022/09/12 06:11:24;;;;;;;0.70;0.40;;;21.40;72.30;;;;;;5061021;28;20111;-77
2022/09/12 06:13:52;;;;;;;0.60;0.20;;;21.30;71.70;;;;;;5055520;28;20119;-80
2022/09/12 06:16:25;;;;;;;0.95;0.52;;;21.10;71.70;;;;;;5058808;28;20031;-78
2022/09/12 06:18:57;;;;;;;5.00;2.53;;;21.00;72.10;;;;;;5051179;28;20075;-78
2022/09/12 06:21:27;;;;;;;8.23;3.90;;;20.90;72.20;;;;;;5051141;28;20040;-78
2022/09/12 06:23:58;;;;;;;3.83;2.47;;;20.90;72.40;;;;;;5051430;28;20477;-80
2022/09/12 06:26:26;;;;;;;0.63;0.45;;;20.80;72.60;;;;;;5053931;28;20111;-82
2022/09/12 06:28:55;;;;;;;1.33;0.50;;;20.80;72.60;;;;;;5052856;28;20025;-82
2022/09/12 06:31:28;;;;;;;0.93;0.43;;;20.70;72.30;;;;;;5050003;28;20139;-79
2022/09/12 06:33:59;;;;;;;2.05;0.40;;;20.60;71.90;;;;;;5050969;28;20037;-79
2022/09/12 06:36:32;;;;;;;2.75;0.75;;;20.50;72.20;;;;;;5054635;28;20038;-77
2022/09/12 06:39:02;;;;;;;0.63;0.40;;;20.40;72.20;;;;;;5050360;28;20036;-75
2022/09/12 06:41:31;;;;;;;1.38;0.40;;;20.30;72.40;;;;;;5032151;28;20037;-79
2022/09/12 06:43:59;;;;;;;2.22;0.63;;;20.30;72.70;;;;;;5051789;28;20048;-78
2022/09/12 06:46:28;;;;;;;1.92;0.80;;;20.20;72.90;;;;;;5051824;28;20056;-77
2022/09/12 06:48:59;;;;;;;2.35;1.60;;;20.20;72.60;;;;;;5048950;28;20033;-78
2022/09/12 06:51:28;;;;;;;2.63;1.42;;;20.20;72.50;;;;;;5049376;28;20036;-77
2022/09/12 06:53:56;;;;;;;1.17;0.70;;;20.10;72.80;;;;;;5050743;28;20895;-76
2022/09/12 06:56:26;;;;;;;3.00;0.40;;;20.00;73.00;;;;;;5051689;28;20032;-80
2022/09/12 06:58:56;;;;;;;1.30;0.82;;;19.90;73.60;;;;;;5050562;28;20075;-76
2022/09/12 07:01:27;;;;;;;3.47;1.25;;;19.90;73.70;;;;;;5052929;28;20457;-80
2022/09/12 07:03:59;;;;;;;7.03;5.07;;;19.80;73.90;;;;;;5048884;28;20077;-79
2022/09/12 07:06:32;;;;;;;1.00;0.70;;;19.80;74.30;;;;;;5048143;28;20043;-80
2022/09/12 07:09:01;;;;;;;0.50;0.40;;;19.70;73.40;;;;;;5050405;28;20175;-78
2022/09/12 07:11:32;;;;;;;1.13;0.30;;;19.80;74.30;;;;;;5060583;28;20036;-78
2022/09/12 07:14:01;;;;;;;1.38;0.40;;;19.70;74.20;;;;;;5058553;28;20032;-81
2022/09/12 07:16:29;;;;;;;1.08;0.40;;;19.70;74.10;;;;;;5059101;28;20020;-76
2022/09/12 07:18:59;;;;;;;0.98;0.60;;;19.60;73.80;;;;;;5062471;28;20137;-77
2022/09/12 07:21:27;;;;;;;2.97;0.40;;;19.50;74.50;;;;;;5066313;28;20147;-74
2022/09/12 07:23:56;;;;;;;1.00;0.35;;;19.30;74.00;;;;;;5069679;28;20036;-78
2022/09/12 07:26:25;;;;;;;1.70;0.30;;;19.20;74.40;;;;;;5066915;28;20063;-77
2022/09/12 07:28:54;;;;;;;2.22;0.30;;;19.20;74.80;;;;;;5061501;28;20025;-77
2022/09/12 07:31:26;;;;;;;0.93;0.52;;;19.10;75.10;;;;;;5050184;28;20642;-78
2022/09/12 07:33:53;;;;;;;0.85;0.65;;;19.00;75.00;;;;;;5067014;28;20032;-76
2022/09/12 07:36:24;;;;;;;0.75;0.30;;;18.90;75.50;;;;;;5057593;28;20051;-77
2022/09/12 07:38:57;;;;;;;0.65;0.30;;;18.80;75.70;;;;;;5043855;28;20134;-78
2022/09/12 07:41:27;;;;;;;0.98;0.22;;;18.80;76.10;;;;;;5052180;28;20052;-79
2022/09/12 07:43:58;;;;;;;0.40;0.20;;;18.70;76.10;;;;;;5061403;28;20036;-83
2022/09/12 07:46:28;;;;;;;1.75;0.20;;;18.60;76.90;;;;;;5064575;28;20030;-86
2022/09/12 07:48:57;;;;;;;0.73;0.40;;;18.50;76.50;;;;;;5074790;28;20056;-85
2022/09/12 07:51:26;;;;;;;0.40;0.20;;;18.40;76.40;;;;;;5066081;28;20024;-87
2022/09/12 07:53:53;;;;;;;0.82;0.70;;;18.30;76.90;;;;;;5060002;28;20056;-83
2022/09/12 07:56:21;;;;;;;1.48;0.80;;;18.10;77.70;;;;;;5058179;28;20025;-86
2022/09/12 07:58:48;;;;;;;2.40;0.63;;;18.00;77.50;;;;;;5053120;28;20067;-88
2022/09/12 08:01:24;;;;;;;1.30;0.50;;;17.90;77.20;;;;;;5056387;28;20068;-82
2022/09/12 08:03:56;;;;;;;1.20;0.43;;;17.70;77.80;;;;;;5051239;28;20057;-80
2022/09/12 08:06:24;;;;;;;1.25;0.35;;;17.70;78.40;;;;;;5055085;28;20046;-86
2022/09/12 08:08:54;;;;;;;0.47;0.45;;;17.60;78.70;;;;;;5055915;28;20055;-93
2022/09/12 08:11:22;;;;;;;1.17;0.43;;;17.60;77.90;;;;;;5069868;28;20120;-76
2022/09/12 08:13:51;;;;;;;0.20;0.10;;;17.50;78.20;;;;;;5054747;28;20043;-77
2022/09/12 08:16:20;;;;;;;1.08;0.25;;;17.40;78.40;;;;;;5061326;28;20029;-76
2022/09/12 08:18:49;;;;;;;0.45;0.28;;;17.40;78.70;;;;;;5075335;28;20047;-77
2022/09/12 08:21:17;;;;;;;0.22;0.10;;;17.30;78.30;;;;;;5068391;28;20033;-77
2022/09/12 08:23:46;;;;;;;0.50;0.20;;;17.30;79.00;;;;;;5061209;28;20050;-76
2022/09/12 08:26:14;;;;;;;1.20;0.25;;;17.20;79.20;;;;;;5053802;28;20044;-78
2022/09/12 08:28:44;;;;;;;1.30;0.30;;;17.20;79.30;;;;;;5069280;28;20441;-77
2022/09/12 08:31:14;;;;;;;0.45;0.20;;;17.10;79.50;;;;;;5076575;28;20108;-77
2022/09/12 08:33:41;;;;;;;0.50;0.30;;;17.00;79.70;;;;;;5069421;28;20021;-78
2022/09/12 08:36:21;;;;;;;1.45;0.35;;;17.00;80.60;;;;;;5066991;28;20024;-77
2022/09/12 08:38:51;;;;;;;0.73;0.20;;;16.80;79.80;;;;;;5061683;28;20032;-77
2022/09/12 08:41:40;;;;;;;0.40;0.30;;;16.80;79.50;;;;;;5064535;28;20029;-78
2022/09/12 08:44:25;;;;;;;0.30;0.20;;;16.70;79.80;;;;;;5063527;28;20498;-77
2022/09/12 08:47:13;;;;;;;0.93;0.20;;;16.60;80.70;;;;;;5059686;28;20043;-79
2022/09/12 08:50:05;;;;;;;1.92;0.47;;;16.60;80.70;;;;;;5060771;28;20095;-77
2022/09/12 08:53:01;;;;;;;0.47;0.20;;;16.40;80.90;;;;;;5062719;28;20029;-77
2022/09/12 08:55:30;;;;;;;0.35;0.20;;;16.40;80.90;;;;;;5057821;28;20478;-77
2022/09/12 08:57:59;;;;;;;0.50;0.28;;;16.30;80.80;;;;;;5062642;28;20483;-77
2022/09/12 09:00:58;;;;;;;2.60;0.65;;;16.20;80.90;;;;;;5058697;28;20048;-77
2022/09/12 09:03:28;;;;;;;0.98;0.60;;;16.20;81.10;;;;;;5064608;28;20041;-77
2022/09/12 09:06:14;;;;;;;0.45;0.40;;;16.10;81.70;;;;;;5066341;28;20028;-77
2022/09/12 09:09:05;;;;;;;0.95;0.45;;;16.00;82.80;;;;;;5055686;28;20029;-75
2022/09/12 09:11:44;;;;;;;0.10;0.10;;;15.90;83.70;;;;;;5062353;28;20480;-74
2022/09/12 09:14:48;;;;;;;0.75;0.43;;;15.80;84.40;;;;;;5060441;28;20031;-77
2022/09/12 09:17:27;;;;;;;0.63;0.20;;;15.70;84.90;;;;;;5066735;28;20089;-76
2022/09/12 09:20:03;;;;;;;0.38;0.10;;;15.60;85.40;;;;;;5063363;28;20024;-76
2022/09/12 09:22:44;;;;;;;;;;;15.50;85.80;;;;;;5059353;28;20491;-76
2022/09/12 09:25:21;;;;;;;0.75;0.30;;;15.40;86.60;;;;;;5048937;28;19912;-75
2022/09/12 09:28:02;;;;;;;1.45;0.25;;;15.40;87.70;;;;;;5066472;28;20029;-77
2022/09/12 09:30:30;;;;;;;1.10;0.30;;;15.20;87.70;;;;;;5064633;28;20045;-77
2022/09/12 09:33:01;;;;;;;5.93;1.02;;;15.20;88.00;;;;;;5056756;28;20064;-77
2022/09/12 09:35:51;;;;;;;0.30;0.30;;;15.10;87.10;;;;;;5069737;28;20039;-77
2022/09/12 09:38:45;;;;;;;0.75;0.40;;;15.00;86.90;;;;;;5063354;28;20037;-76
2022/09/12 09:41:28;;;;;;;0.70;0.57;;;15.00;88.40;;;;;;5064459;28;20073;-77
2022/09/12 09:43:57;;;;;;;1.38;0.43;;;15.00;88.40;;;;;;5067229;28;20040;-77
2022/09/12 09:46:25;;;;;;;1.58;0.60;;;14.90;89.20;;;;;;5059425;28;20160;-77
2022/09/12 09:48:54;;;;;;;0.57;0.25;;;14.80;89.70;;;;;;5063325;28;20025;-78
2022/09/12 09:51:31;;;;;;;2.22;0.40;;;14.70;88.80;;;;;;5061857;28;20080;-75
2022/09/12 09:54:16;;;;;;;0.43;0.28;;;14.70;88.40;;;;;;5067016;28;20033;-75
2022/09/12 09:56:44;;;;;;;0.60;0.30;;;14.70;88.10;;;;;;5065981;28;20029;-75
2022/09/12 09:59:30;;;;;;;1.33;0.30;;;14.60;88.90;;;;;;5061753;28;20509;-76
2022/09/12 10:02:11;;;;;;;1.63;0.60;;;14.60;88.80;;;;;;5061710;28;20128;-76
2022/09/12 10:04:54;;;;;;;0.73;0.30;;;14.60;89.70;;;;;;5074499;28;20020;-77
2022/09/12 10:07:23;;;;;;;1.08;0.52;;;14.50;89.60;;;;;;5058348;28;20096;-78
2022/09/12 10:10:21;;;;;;;0.90;0.30;;;14.40;89.40;;;;;;5067094;28;20028;-76
2022/09/12 10:12:49;;;;;;;0.85;0.50;;;14.40;89.10;;;;;;5056807;28;20033;-78
2022/09/12 10:15:25;;;;;;;1.77;0.63;;;14.30;89.20;;;;;;5061191;28;20033;-79
2022/09/12 10:17:57;;;;;;;1.52;0.70;;;14.30;89.60;;;;;;5061972;28;20044;-77
2022/09/12 10:20:41;;;;;;;1.50;0.50;;;14.20;89.10;;;;;;5053109;28;20029;-76
2022/09/12 10:23:29;;;;;;;0.98;0.32;;;14.10;89.30;;;;;;5055331;28;20223;-77
2022/09/12 10:26:00;;;;;;;1.30;0.30;;;14.00;90.40;;;;;;5056479;28;20107;-75
2022/09/12 10:28:58;;;;;;;0.40;0.20;;;13.90;90.30;;;;;;5065853;28;20490;-77
2022/09/12 10:31:42;;;;;;;1.77;0.25;;;13.80;90.40;;;;;;5068049;28;20502;-78
2022/09/12 10:34:25;;;;;;;1.45;0.30;;;13.80;91.00;;;;;;5055907;28;20032;-76
2022/09/12 10:36:59;;;;;;;7.07;0.50;;;13.70;91.10;;;;;;5062352;28;20036;-77
2022/09/12 10:39:26;;;;;;;1.75;0.80;;;13.70;91.30;;;;;;5059742;28;20040;-79
2022/09/12 10:41:54;;;;;;;2.38;0.73;;;13.60;91.50;;;;;;5059084;28;20044;-76
2022/09/12 10:44:29;;;;;;;0.63;0.63;;;13.50;91.80;;;;;;5064542;28;20025;-76
2022/09/12 10:46:59;;;;;;;1.15;0.68;;;13.40;92.10;;;;;;5060164;28;20052;-76
2022/09/12 10:49:36;;;;;;;1.23;0.45;;;13.30;92.30;;;;;;5060234;28;20115;-77
2022/09/12 10:52:24;;;;;;;1.55;0.45;;;13.20;92.60;;;;;;5058342;28;20032;-78
2022/09/12 10:54:53;;;;;;;1.88;0.35;;;13.20;92.80;;;;;;5058955;28;20037;-76
2022/09/12 10:57:56;;;;;;;0.70;0.50;;;13.10;92.70;;;;;;5066156;28;20040;-74
2022/09/12 11:00:26;;;;;;;1.65;0.20;;;13.10;92.60;;;;;;5032835;28;20129;-77
2022/09/12 11:03:02;;;;;;;1.40;0.40;;;13.10;92.50;;;;;;5055314;28;20041;-77
2022/09/12 11:05:37;;;;;;;1.95;0.30;;;13.10;92.40;;;;;;5063161;28;20082;-78
2022/09/12 11:08:22;;;;;;;0.35;0.20;;;13.10;92.40;;;;;;5054541;28;20079;-75
2022/09/12 11:10:55;;;;;;;1.20;0.20;;;13.10;92.20;;;;;;5050040;28;20033;-75
2022/09/12 11:13:29;;;;;;;0.90;0.38;;;13.10;92.20;;;;;;5060876;28;20033;-76
2022/09/12 11:16:21;;;;;;;2.13;0.28;;;13.00;92.50;;;;;;5057879;28;20103;-76
2022/09/12 11:19:16;;;;;;;0.15;0.10;;;13.00;92.40;;;;;;5062744;28;20083;-77
2022/09/12 11:21:51;;;;;;;1.85;0.20;;;13.00;92.90;;;;;;5065897;28;20086;-77
2022/09/12 11:24:42;;;;;;;0.20;0.20;;;12.90;92.40;;;;;;5057234;28;20036;-77
2022/09/12 11:27:25;;;;;;;0.80;0.20;;;12.90;92.80;;;;;;5067259;28;20379;-76
2022/09/12 11:30:12;;;;;;;0.25;0.20;;;12.80;93.20;;;;;;5067934;28;20115;-77
2022/09/12 11:32:42;;;;;;;0.90;0.43;;;12.80;93.10;;;;;;5056592;28;20072;-77
2022/09/12 11:35:23;;;;;;;1.35;0.80;;;12.70;93.40;;;;;;5059449;28;20918;-78
2022/09/12 11:38:18;;;;;;;0.25;0.20;;;12.60;93.30;;;;;;5066982;28;20038;-77
2022/09/12 11:40:58;;;;;;;0.70;0.32;;;12.50;93.60;;;;;;5061864;28;20021;-77
2022/09/12 11:43:31;;;;;;;0.38;0.30;;;12.50;93.90;;;;;;5061859;28;20528;-75
2022/09/12 11:46:32;;;;;;;0.35;0.25;;;12.50;94.00;;;;;;5063299;28;20028;-75
2022/09/12 11:49:14;;;;;;;1.23;0.68;;;12.40;94.10;;;;;;5067301;28;20020;-77
2022/09/12 11:51:52;;;;;;;0.65;0.20;;;12.30;94.20;;;;;;5068215;28;20103;-77
2022/09/12 11:54:48;;;;;;;1.85;0.32;;;12.20;94.30;;;;;;5058765;28;20563;-77
2022/09/12 11:57:24;;;;;;;0.25;0.15;;;12.20;94.60;;;;;;5040097;28;20032;-77
2022/09/12 12:00:07;;;;;;;1.95;0.30;;;12.10;94.90;;;;;;5062251;28;20039;-76
2022/09/12 12:03:11;;;;;;;0.47;0.35;;;12.10;95.10;;;;;;5064837;28;20044;-77
2022/09/12 12:06:06;;;;;;;1.25;0.28;;;12.00;95.10;;;;;;5062898;28;20024;-77
2022/09/12 12:08:40;;;;;;;0.20;0.20;;;12.00;95.00;;;;;;5059853;28;20070;-76
2022/09/12 12:11:25;;;;;;;1.55;0.30;;;12.00;94.90;;;;;;5066715;28;20820;-77
2022/09/12 12:14:03;;;;;;;0.80;0.40;;;12.00;94.80;;;;;;5061537;28;20036;-76
2022/09/12 12:16:37;;;;;;;0.80;0.20;;;12.00;95.00;;;;;;5056788;28;20050;-75
2022/09/12 12:19:14;;;;;;;0.38;0.20;;;12.00;94.90;;;;;;5069406;28;20037;-77
2022/09/12 12:21:43;;;;;;;0.32;0.20;;;12.00;95.00;;;;;;5064565;28;20029;-76
2022/09/12 12:24:14;;;;;;;3.40;0.30;;;11.90;95.00;;;;;;5060302;28;20025;-77
2022/09/12 12:26:57;;;;;;;1.10;0.30;;;11.90;95.10;;;;;;5055782;28;20025;-76
2022/09/12 12:29:31;;;;;;;0.85;0.30;;;11.90;95.20;;;;;;5059834;28;20052;-78
2022/09/12 12:32:00;;;;;;;0.52;0.20;;;11.90;95.30;;;;;;5054151;28;20152;-76
2022/09/12 12:34:45;;;;;;;0.28;0.10;;;11.90;95.20;;;;;;5059696;28;20021;-77
2022/09/12 12:37:22;;;;;;;1.95;0.20;;;11.90;95.40;;;;;;5061280;28;20028;-75
2022/09/12 12:39:50;;;;;;;0.30;0.20;;;11.90;95.20;;;;;;5059732;28;20083;-76
2022/09/12 12:42:35;;;;;;;0.45;0.30;;;11.90;95.30;;;;;;5067439;28;20040;-76
2022/09/12 12:45:29;;;;;;;0.57;0.47;;;11.90;95.30;;;;;;5044204;28;20031;-75
2022/09/12 12:48:16;;;;;;;0.45;0.20;;;11.90;95.30;;;;;;5055776;28;20505;-75
2022/09/12 12:50:44;;;;;;;0.82;0.20;;;11.80;95.30;;;;;;5063558;28;20139;-75
2022/09/12 12:53:29;;;;;;;1.05;0.30;;;11.80;95.40;;;;;;5054946;28;20055;-75
2022/09/12 12:55:57;;;;;;;0.93;0.38;;;11.80;95.30;;;;;;5058581;28;20540;-74
2022/09/12 12:58:41;;;;;;;0.20;0.20;;;11.80;95.60;;;;;;5048402;28;20051;-74
2022/09/12 13:01:21;;;;;;;1.48;0.22;;;11.70;95.50;;;;;;5053051;28;20028;-76
2022/09/12 13:04:02;;;;;;;1.05;0.30;;;11.70;95.60;;;;;;5064934;28;20037;-73
2022/09/12 13:06:43;;;;;;;1.60;0.20;;;11.70;95.60;;;;;;5063261;28;20036;-78
2022/09/12 13:09:38;;;;;;;4.03;0.30;;;11.70;95.70;;;;;;5060592;28;20360;-75
2022/09/12 13:12:12;;;;;;;3.20;0.20;;;11.60;95.70;;;;;;5056795;28;20036;-75
2022/09/12 13:14:55;;;;;;;0.50;0.40;;;11.60;95.70;;;;;;5063480;28;20146;-75
2022/09/12 13:17:42;;;;;;;1.25;0.52;;;11.50;96.00;;;;;;5052477;28;20029;-75
2022/09/12 13:20:13;;;;;;;1.88;0.28;;;11.50;96.10;;;;;;5053006;28;20055;-77
2022/09/12 13:22:46;;;;;;;1.00;0.80;;;11.50;96.20;;;;;;5064129;28;20036;-76
2022/09/12 13:25:23;;;;;;;0.50;0.30;;;11.40;96.10;;;;;;5052980;28;20036;-75
2022/09/12 13:28:03;;;;;;;0.57;0.50;;;11.40;96.20;;;;;;5052919;28;20029;-75
2022/09/12 13:30:36;;;;;;;0.30;0.30;;;11.40;96.30;;;;;;5048864;28;22006;-76